sensor_id;sensor_type;location;lat;lon;timestamp;pressure;altitude;pressure_sealevel;temperature;humidity
29215;BME280;16252;49.816;7.964;2022-11-20T00:01:57;99599.38;;;6.70;68.29
29215;BME280;16252;49.816;7.964;2022-11-20T00:04:22;99548.91;;;6.31;68.70
29215;BME280;16252;49.816;7.964;2022-11-20T00:06:47;99626.50;;;6.76;68.51
29215;BME280;16252;49.816;7.964;2022-11-20T00:09:12;99613.72;;;6.68;68.63
29215;BME280;16252;49.816;7.964;2022-11-20T00:11:38;99589.88;;;6.54;68.34
29215;BME280;16252;49.816;7.964;2022-11-20T00:14:03;99584.44;;;6.55;68.43
29215;BME280;16252;49.816;7.964;2022-11-20T00:16:31;99598.75;;;6.67;68.35
29215;BME280;16252;49.816;7.964;2022-11-20T00:18:57;99627.19;;;6.79;68.56
29215;BME280;16252;49.816;7.964;2022-11-20T00:21:25;99628.25;;;6.77;68.57
29215;BME280;16252;49.816;7.964;2022-11-20T00:23:51;99612.88;;;6.67;68.54
29215;BME280;16252;49.816;7.964;2022-11-20T00:26:19;99616.00;;;6.74;68.50
29215;BME280;16252;49.816;7.964;2022-11-20T00:28:52;99605.56;;;6.71;68.68
29215;BME280;16252;49.816;7.964;2022-11-20T00:31:19;99596.69;;;6.58;68.64
29215;BME280;16252;49.816;7.964;2022-11-20T00:33:45;99588.84;;;6.56;68.67
29215;BME280;16252;49.816;7.964;2022-11-20T00:36:15;99569.13;;;6.46;68.47
29215;BME280;16252;49.816;7.964;2022-11-20T00:38:42;99608.78;;;6.76;68.77
29215;BME280;16252;49.816;7.964;2022-11-20T00:41:10;99603.25;;;6.79;68.60
29215;BME280;16252;49.816;7.964;2022-11-20T00:43:36;99579.81;;;6.59;68.50
29215;BME280;16252;49.816;7.964;2022-11-20T00:46:15;99582.88;;;6.65;68.21
29215;BME280;16252;49.816;7.964;2022-11-20T00:48:40;99620.81;;;6.82;68.62
29215;BME280;16252;49.816;7.964;2022-11-20T00:51:06;99590.34;;;6.73;68.66
29215;BME280;16252;49.816;7.964;2022-11-20T00:53:32;99589.41;;;6.74;68.67
29215;BME280;16252;49.816;7.964;2022-11-20T00:55:59;99590.34;;;6.73;68.66
29215;BME280;16252;49.816;7.964;2022-11-20T00:58:32;99577.03;;;6.60;68.48
29215;BME280;16252;49.816;7.964;2022-11-20T01:03:27;99613.22;;;6.76;68.60
29215;BME280;16252;49.816;7.964;2022-11-20T01:05:52;99575.63;;;6.55;68.39
29215;BME280;16252;49.816;7.964;2022-11-20T01:08:18;99606.22;;;6.75;68.55
29215;BME280;16252;49.816;7.964;2022-11-20T01:10:43;99599.09;;;6.75;68.31
29215;BME280;16252;49.816;7.964;2022-11-20T01:13:08;99607.91;;;6.76;68.53
29215;BME280;16252;49.816;7.964;2022-11-20T01:15:52;99593.34;;;6.68;68.57
29215;BME280;16252;49.816;7.964;2022-11-20T01:18:17;99574.28;;;6.62;68.64
29215;BME280;16252;49.816;7.964;2022-11-20T01:20:43;99545.84;;;6.49;68.57
29215;BME280;16252;49.816;7.964;2022-11-20T01:23:08;99586.53;;;6.77;68.59
29215;BME280;16252;49.816;7.964;2022-11-20T01:25:34;99594.22;;;6.82;68.48
29215;BME280;16252;49.816;7.964;2022-11-20T01:27:59;99553.31;;;6.57;68.62
29215;BME280;16252;49.816;7.964;2022-11-20T01:30:25;99545.56;;;6.54;68.60
29215;BME280;16252;49.816;7.964;2022-11-20T01:32:50;99585.91;;;6.73;68.44
29215;BME280;16252;49.816;7.964;2022-11-20T01:35:16;99591.84;;;6.77;68.54
29215;BME280;16252;49.816;7.964;2022-11-20T01:37:41;99614.22;;;6.87;68.52
29215;BME280;16252;49.816;7.964;2022-11-20T01:40:07;99568.66;;;6.66;68.48
29215;BME280;16252;49.816;7.964;2022-11-20T01:42:32;99595.81;;;6.84;68.58
29215;BME280;16252;49.816;7.964;2022-11-20T01:48:19;99579.53;;;6.76;68.54
29215;BME280;16252;49.816;7.964;2022-11-20T01:50:48;99596.75;;;6.83;68.54
29215;BME280;16252;49.816;7.964;2022-11-20T01:53:15;99540.53;;;6.49;68.71
29215;BME280;16252;49.816;7.964;2022-11-20T01:55:49;99453.28;;;6.03;68.32
29215;BME280;16252;49.816;7.964;2022-11-20T01:58:16;99441.53;;;5.93;68.40
29215;BME280;16252;49.816;7.964;2022-11-20T02:00:44;99581.22;;;6.77;68.44
29215;BME280;16252;49.816;7.964;2022-11-20T02:03:12;99424.28;;;5.86;68.29
29215;BME280;16252;49.816;7.964;2022-11-20T02:05:45;99424.84;;;5.91;68.26
29215;BME280;16252;49.816;7.964;2022-11-20T02:10:39;99578.47;;;6.79;68.38
29215;BME280;16252;49.816;7.964;2022-11-20T02:13:04;99545.44;;;6.56;68.36
29215;BME280;16252;49.816;7.964;2022-11-20T02:15:49;99558.22;;;6.63;68.22
29215;BME280;16252;49.816;7.964;2022-11-20T02:18:16;99584.72;;;6.78;68.49
29215;BME280;16252;49.816;7.964;2022-11-20T02:20:44;99530.44;;;6.55;68.37
29215;BME280;16252;49.816;7.964;2022-11-20T02:23:32;99551.66;;;6.69;68.13
29215;BME280;16252;49.816;7.964;2022-11-20T02:26:00;99581.69;;;6.97;67.87
29215;BME280;16252;49.816;7.964;2022-11-20T02:28:27;99566.31;;;6.75;68.14
29215;BME280;16252;49.816;7.964;2022-11-20T02:30:52;99543.97;;;6.64;68.12
29215;BME280;16252;49.816;7.964;2022-11-20T02:33:18;99536.31;;;6.60;68.35
29215;BME280;16252;49.816;7.964;2022-11-20T02:35:45;99528.00;;;6.51;68.38
29215;BME280;16252;49.816;7.964;2022-11-20T02:38:13;99525.13;;;6.55;68.27
29215;BME280;16252;49.816;7.964;2022-11-20T02:40:38;99571.03;;;6.84;68.48
29215;BME280;16252;49.816;7.964;2022-11-20T02:43:04;99525.13;;;6.55;68.37
29215;BME280;16252;49.816;7.964;2022-11-20T02:45:29;99532.81;;;6.59;68.38
29215;BME280;16252;49.816;7.964;2022-11-20T02:47:54;99559.94;;;6.77;68.42
29215;BME280;16252;49.816;7.964;2022-11-20T02:50:20;99543.13;;;6.64;68.45
29215;BME280;16252;49.816;7.964;2022-11-20T02:52:45;99543.97;;;6.64;68.32
29215;BME280;16252;49.816;7.964;2022-11-20T02:55:11;99573.78;;;6.82;68.53
29215;BME280;16252;49.816;7.964;2022-11-20T02:57:37;99573.56;;;6.85;68.46
29215;BME280;16252;49.816;7.964;2022-11-20T03:00:03;99571.66;;;6.87;68.45
29215;BME280;16252;49.816;7.964;2022-11-20T03:02:30;99524.63;;;6.62;68.30
29215;BME280;16252;49.816;7.964;2022-11-20T03:04:55;99503.31;;;6.49;68.51
29215;BME280;16252;49.816;7.964;2022-11-20T03:07:20;99509.50;;;6.50;68.15
29215;BME280;16252;49.816;7.964;2022-11-20T03:09:46;99569.84;;;6.88;68.39
29215;BME280;16252;49.816;7.964;2022-11-20T03:12:11;99551.66;;;6.82;68.23
29215;BME280;16252;49.816;7.964;2022-11-20T03:14:36;99519.94;;;6.66;68.30
29215;BME280;16252;49.816;7.964;2022-11-20T03:17:02;99539.53;;;6.78;68.38
29215;BME280;16252;49.816;7.964;2022-11-20T03:19:27;99556.56;;;6.88;68.31
29215;BME280;16252;49.816;7.964;2022-11-20T03:21:52;99547.81;;;6.86;68.34
29215;BME280;16252;49.816;7.964;2022-11-20T03:24:18;99548.47;;;6.89;68.29
29215;BME280;16252;49.816;7.964;2022-11-20T03:26:43;99557.94;;;6.93;68.38
29215;BME280;16252;49.816;7.964;2022-11-20T03:29:08;99507.59;;;6.65;68.37
29215;BME280;16252;49.816;7.964;2022-11-20T03:31:37;99551.25;;;7.01;68.30
29215;BME280;16252;49.816;7.964;2022-11-20T03:34:03;99509.66;;;6.74;68.15
29215;BME280;16252;49.816;7.964;2022-11-20T03:36:29;99542.09;;;6.92;68.26
29215;BME280;16252;49.816;7.964;2022-11-20T03:38:55;99554.75;;;7.01;68.10
29215;BME280;16252;49.816;7.964;2022-11-20T03:41:28;99546.59;;;7.04;68.20
29215;BME280;16252;49.816;7.964;2022-11-20T03:44:02;99526.78;;;6.95;68.08
29215;BME280;16252;49.816;7.964;2022-11-20T03:46:28;99508.59;;;6.89;68.29
29215;BME280;16252;49.816;7.964;2022-11-20T03:48:53;99526.03;;;6.93;68.33
29215;BME280;16252;49.816;7.964;2022-11-20T03:51:21;99543.06;;;7.04;68.33
29215;BME280;16252;49.816;7.964;2022-11-20T03:53:48;99534.88;;;6.94;68.26
29215;BME280;16252;49.816;7.964;2022-11-20T03:56:16;99540.59;;;7.01;68.35
29215;BME280;16252;49.816;7.964;2022-11-20T03:58:42;99523.50;;;6.92;68.15
29215;BME280;16252;49.816;7.964;2022-11-20T04:01:17;99508.06;;;6.84;67.96
29215;BME280;16252;49.816;7.964;2022-11-20T04:03:44;99528.91;;;6.90;68.40
29215;BME280;16252;49.816;7.964;2022-11-20T04:06:11;99518.25;;;6.90;67.92
29215;BME280;16252;49.816;7.964;2022-11-20T04:08:37;99542.50;;;6.99;68.22
29215;BME280;16252;49.816;7.964;2022-11-20T04:11:11;99534.66;;;6.97;68.21
29215;BME280;16252;49.816;7.964;2022-11-20T04:13:37;99505.19;;;6.87;68.23
29215;BME280;16252;49.816;7.964;2022-11-20T04:16:04;99524.66;;;7.01;68.17
29215;BME280;16252;49.816;7.964;2022-11-20T04:18:29;99507.84;;;6.87;68.29
29215;BME280;16252;49.816;7.964;2022-11-20T04:20:56;99512.41;;;6.85;68.27
29215;BME280;16252;49.816;7.964;2022-11-20T04:23:22;99518.25;;;6.90;68.30
29215;BME280;16252;49.816;7.964;2022-11-20T04:25:47;99510.59;;;6.86;68.23
29215;BME280;16252;49.816;7.964;2022-11-20T04:28:12;99481.03;;;6.65;68.22
29215;BME280;16252;49.816;7.964;2022-11-20T04:30:38;99536.47;;;6.97;68.38
29215;BME280;16252;49.816;7.964;2022-11-20T04:33:03;99530.63;;;6.91;68.27
29215;BME280;16252;49.816;7.964;2022-11-20T04:35:28;99394.13;;;6.14;68.34
29215;BME280;16252;49.816;7.964;2022-11-20T04:37:53;99530.28;;;6.96;68.28
29215;BME280;16252;49.816;7.964;2022-11-20T04:40:19;99518.25;;;6.90;68.10
29215;BME280;16252;49.816;7.964;2022-11-20T04:42:44;99515.06;;;6.85;68.28
29215;BME280;16252;49.816;7.964;2022-11-20T04:45:09;99466.56;;;6.56;68.28
29215;BME280;16252;49.816;7.964;2022-11-20T04:47:35;99521.22;;;6.86;68.45
29215;BME280;16252;49.816;7.964;2022-11-20T04:50:00;99519.09;;;6.91;68.37
29215;BME280;16252;49.816;7.964;2022-11-20T04:52:25;99508.69;;;6.88;68.38
29215;BME280;16252;49.816;7.964;2022-11-20T04:54:50;99507.63;;;6.90;68.31
29215;BME280;16252;49.816;7.964;2022-11-20T04:57:18;99529.34;;;6.97;68.30
29215;BME280;16252;49.816;7.964;2022-11-20T04:59:43;99511.47;;;6.86;68.37
29215;BME280;16252;49.816;7.964;2022-11-20T05:02:09;99527.31;;;7.01;68.24
29215;BME280;16252;49.816;7.964;2022-11-20T05:04:34;99507.00;;;6.87;68.41
29215;BME280;16252;49.816;7.964;2022-11-20T05:07:00;99507.41;;;6.93;68.56
29215;BME280;16252;49.816;7.964;2022-11-20T05:09:26;99516.34;;;7.05;68.44
29215;BME280;16252;49.816;7.964;2022-11-20T05:11:51;99467.66;;;6.79;68.30
29215;BME280;16252;49.816;7.964;2022-11-20T05:14:16;99484.66;;;6.89;68.45
29215;BME280;16252;49.816;7.964;2022-11-20T05:16:42;99486.78;;;6.84;68.37
29215;BME280;16252;49.816;7.964;2022-11-20T05:19:07;99511.13;;;7.04;68.63
29215;BME280;16252;49.816;7.964;2022-11-20T05:21:32;99503.69;;;6.96;68.29
29215;BME280;16252;49.816;7.964;2022-11-20T05:23:57;99496.06;;;6.91;68.63
29215;BME280;16252;49.816;7.964;2022-11-20T05:26:23;99488.16;;;6.90;68.64
29215;BME280;16252;49.816;7.964;2022-11-20T05:28:49;99514.44;;;7.07;68.61
29215;BME280;16252;49.816;7.964;2022-11-20T05:31:19;99509.97;;;7.08;68.55
29215;BME280;16252;49.816;7.964;2022-11-20T05:33:46;99482.75;;;6.91;68.71
29215;BME280;16252;49.816;7.964;2022-11-20T05:36:13;99511.66;;;7.09;68.92
29215;BME280;16252;49.816;7.964;2022-11-20T05:38:40;99526.91;;;7.07;68.67
29215;BME280;16252;49.816;7.964;2022-11-20T05:41:13;99517.41;;;7.03;68.56
29215;BME280;16252;49.816;7.964;2022-11-20T05:43:40;99468.59;;;6.78;68.55
29215;BME280;16252;49.816;7.964;2022-11-20T05:46:06;99508.16;;;7.08;68.54
29215;BME280;16252;49.816;7.964;2022-11-20T05:48:33;99489.66;;;7.07;68.46
29215;BME280;16252;49.816;7.964;2022-11-20T05:50:59;99489.00;;;7.03;68.63
29215;BME280;16252;49.816;7.964;2022-11-20T05:53:25;99493.56;;;7.01;68.78
29215;BME280;16252;49.816;7.964;2022-11-20T05:56:01;99495.06;;;7.05;68.84
29215;BME280;16252;49.816;7.964;2022-11-20T05:58:27;99481.25;;;6.87;68.94
29215;BME280;16252;49.816;7.964;2022-11-20T06:00:52;99460.50;;;6.80;69.00
29215;BME280;16252;49.816;7.964;2022-11-20T06:03:17;99445.31;;;6.69;68.80
29215;BME280;16252;49.816;7.964;2022-11-20T06:05:43;99497.31;;;6.99;68.88
29215;BME280;16252;49.816;7.964;2022-11-20T06:08:08;99474.66;;;6.93;68.87
29215;BME280;16252;49.816;7.964;2022-11-20T06:10:33;99427.84;;;6.65;68.79
29215;BME280;16252;49.816;7.964;2022-11-20T06:12:58;99431.03;;;6.70;68.69
29215;BME280;16252;49.816;7.964;2022-11-20T06:15:24;99459.97;;;6.87;68.66
29215;BME280;16252;49.816;7.964;2022-11-20T06:17:53;99470.31;;;6.92;68.53
29215;BME280;16252;49.816;7.964;2022-11-20T06:20:19;99451.91;;;6.76;68.74
29215;BME280;16252;49.816;7.964;2022-11-20T06:22:45;99430.81;;;6.60;68.81
29215;BME280;16252;49.816;7.964;2022-11-20T06:25:10;99491.25;;;6.97;68.87
29215;BME280;16252;49.816;7.964;2022-11-20T06:27:35;99505.94;;;7.02;68.86
29215;BME280;16252;49.816;7.964;2022-11-20T06:30:01;99449.34;;;6.75;68.86
29215;BME280;16252;49.816;7.964;2022-11-20T06:32:26;99505.63;;;7.07;68.91
29215;BME280;16252;49.816;7.964;2022-11-20T06:34:51;99461.88;;;6.85;68.92
29215;BME280;16252;49.816;7.964;2022-11-20T06:37:16;99485.59;;;7.01;68.91
29215;BME280;16252;49.816;7.964;2022-11-20T06:39:42;99479.44;;;7.01;68.78
29215;BME280;16252;49.816;7.964;2022-11-20T06:42:07;99504.44;;;7.11;68.70
29215;BME280;16252;49.816;7.964;2022-11-20T06:44:32;99503.28;;;7.15;68.78
29215;BME280;16252;49.816;7.964;2022-11-20T06:46:57;99494.00;;;7.08;68.78
29215;BME280;16252;49.816;7.964;2022-11-20T06:49:23;99499.00;;;7.12;68.81
29215;BME280;16252;49.816;7.964;2022-11-20T06:51:48;99480.41;;;7.00;68.78
29215;BME280;16252;49.816;7.964;2022-11-20T06:54:13;99471.91;;;6.94;68.79
29215;BME280;16252;49.816;7.964;2022-11-20T06:56:39;99494.09;;;7.06;68.87
29215;BME280;16252;49.816;7.964;2022-11-20T06:59:05;99516.13;;;7.21;68.78
29215;BME280;16252;49.816;7.964;2022-11-20T07:01:31;99506.78;;;7.15;69.00
29215;BME280;16252;49.816;7.964;2022-11-20T07:03:56;99501.03;;;7.09;68.81
29215;BME280;16252;49.816;7.964;2022-11-20T07:06:21;99491.56;;;7.05;68.86
29215;BME280;16252;49.816;7.964;2022-11-20T07:08:46;99477.44;;;6.91;68.85
29215;BME280;16252;49.816;7.964;2022-11-20T07:11:12;99496.66;;;7.08;68.91
29215;BME280;16252;49.816;7.964;2022-11-20T07:13:37;99506.03;;;7.13;68.76
29215;BME280;16252;49.816;7.964;2022-11-20T07:16:06;99517.72;;;7.24;68.93
29215;BME280;16252;49.816;7.964;2022-11-20T07:18:32;99511.25;;;7.15;69.04
29215;BME280;16252;49.816;7.964;2022-11-20T07:21:05;99528.06;;;7.28;69.07
29215;BME280;16252;49.816;7.964;2022-11-20T07:23:31;99480.72;;;6.95;68.86
29215;BME280;16252;49.816;7.964;2022-11-20T07:25:57;99457.75;;;6.81;69.00
29215;BME280;16252;49.816;7.964;2022-11-20T07:28:22;99512.31;;;7.12;68.86
29215;BME280;16252;49.816;7.964;2022-11-20T07:30:51;99487.63;;;6.98;68.68
29215;BME280;16252;49.816;7.964;2022-11-20T07:33:17;99527.13;;;7.16;68.66
29215;BME280;16252;49.816;7.964;2022-11-20T07:35:42;99504.88;;;7.05;68.95
29215;BME280;16252;49.816;7.964;2022-11-20T07:38:07;99510.72;;;7.10;68.75
29215;BME280;16252;49.816;7.964;2022-11-20T07:40:33;99478.38;;;6.90;68.96
29215;BME280;16252;49.816;7.964;2022-11-20T07:42:58;99521.03;;;7.14;68.96
29215;BME280;16252;49.816;7.964;2022-11-20T07:45:24;99509.75;;;7.11;68.98
29215;BME280;16252;49.816;7.964;2022-11-20T07:47:50;99538.59;;;7.30;69.13
29215;BME280;16252;49.816;7.964;2022-11-20T07:50:16;99495.69;;;7.09;69.07
29215;BME280;16252;49.816;7.964;2022-11-20T07:52:41;99399.16;;;6.44;69.00
29215;BME280;16252;49.816;7.964;2022-11-20T07:55:08;99560.28;;;7.36;68.93
29215;BME280;16252;49.816;7.964;2022-11-20T07:57:33;99447.84;;;6.70;68.79
29215;BME280;16252;49.816;7.964;2022-11-20T07:59:59;99557.00;;;7.33;69.16
29215;BME280;16252;49.816;7.964;2022-11-20T08:02:24;99559.34;;;7.37;68.86
29215;BME280;16252;49.816;7.964;2022-11-20T08:04:49;99492.50;;;6.91;68.51
29215;BME280;16252;49.816;7.964;2022-11-20T08:07:15;99536.34;;;7.24;68.65
29215;BME280;16252;49.816;7.964;2022-11-20T08:09:41;99560.41;;;7.35;68.60
29215;BME280;16252;49.816;7.964;2022-11-20T08:12:06;99551.25;;;7.26;68.64
29215;BME280;16252;49.816;7.964;2022-11-20T08:14:51;99519.00;;;7.18;68.87
29215;BME280;16252;49.816;7.964;2022-11-20T08:17:16;99548.06;;;7.34;68.62
29215;BME280;16252;49.816;7.964;2022-11-20T08:19:41;99536.47;;;7.22;68.64
29215;BME280;16252;49.816;7.964;2022-11-20T08:22:06;99567.41;;;7.49;68.57
29215;BME280;16252;49.816;7.964;2022-11-20T08:24:32;99538.16;;;7.36;68.75
29215;BME280;16252;49.816;7.964;2022-11-20T08:26:58;99574.13;;;7.54;68.53
29215;BME280;16252;49.816;7.964;2022-11-20T08:29:24;99571.34;;;7.56;68.65
29215;BME280;16252;49.816;7.964;2022-11-20T08:31:49;99564.88;;;7.47;68.48
29215;BME280;16252;49.816;7.964;2022-11-20T08:34:17;99555.09;;;7.48;68.35
29215;BME280;16252;49.816;7.964;2022-11-20T08:36:43;99575.84;;;7.55;68.39
29215;BME280;16252;49.816;7.964;2022-11-20T08:39:11;99576.13;;;7.64;68.34
29215;BME280;16252;49.816;7.964;2022-11-20T08:41:36;99547.31;;;7.45;68.51
29215;BME280;16252;49.816;7.964;2022-11-20T08:44:03;99576.22;;;7.62;68.33
29215;BME280;16252;49.816;7.964;2022-11-20T08:46:34;99558.28;;;7.53;68.09
29215;BME280;16252;49.816;7.964;2022-11-20T08:49:01;99584.13;;;7.64;68.49
29215;BME280;16252;49.816;7.964;2022-11-20T08:51:26;99573.19;;;7.55;68.54
29215;BME280;16252;49.816;7.964;2022-11-20T08:53:52;99559.34;;;7.50;68.54
29215;BME280;16252;49.816;7.964;2022-11-20T08:56:17;99572.53;;;7.52;68.56
29215;BME280;16252;49.816;7.964;2022-11-20T08:58:43;99560.94;;;7.53;68.49
29215;BME280;16252;49.816;7.964;2022-11-20T09:01:08;99579.97;;;7.59;68.22
29215;BME280;16252;49.816;7.964;2022-11-20T09:03:33;99602.34;;;7.70;68.19
29215;BME280;16252;49.816;7.964;2022-11-20T09:06:00;99590.72;;;7.71;68.35
29215;BME280;16252;49.816;7.964;2022-11-20T09:08:27;99565.50;;;7.51;68.56
29215;BME280;16252;49.816;7.964;2022-11-20T09:10:53;99573.94;;;7.57;68.43
29215;BME280;16252;49.816;7.964;2022-11-20T09:13:20;99597.66;;;7.73;68.54
29215;BME280;16252;49.816;7.964;2022-11-20T09:15:46;99598.41;;;7.75;68.54
29215;BME280;16252;49.816;7.964;2022-11-20T09:18:11;99590.50;;;7.74;68.86
29215;BME280;16252;49.816;7.964;2022-11-20T09:20:36;99573.25;;;7.67;68.37
29215;BME280;16252;49.816;7.964;2022-11-20T09:23:02;99558.56;;;7.61;68.44
29215;BME280;16252;49.816;7.964;2022-11-20T09:25:27;99548.25;;;7.56;68.37
29215;BME280;16252;49.816;7.964;2022-11-20T09:27:56;99547.59;;;7.66;68.25
29215;BME280;16252;49.816;7.964;2022-11-20T09:30:22;99551.66;;;7.58;68.41
29215;BME280;16252;49.816;7.964;2022-11-20T09:32:47;99571.25;;;7.70;68.46
29215;BME280;16252;49.816;7.964;2022-11-20T09:35:13;99553.91;;;7.65;68.60
29215;BME280;16252;49.816;7.964;2022-11-20T09:37:39;99562.06;;;7.74;68.78
29215;BME280;16252;49.816;7.964;2022-11-20T09:40:05;99570.56;;;7.79;68.71
29215;BME280;16252;49.816;7.964;2022-11-20T09:43:19;99566.50;;;7.87;68.48
29215;BME280;16252;49.816;7.964;2022-11-20T09:45:55;99574.06;;;7.93;68.17
29215;BME280;16252;49.816;7.964;2022-11-20T09:51:04;99561.41;;;7.84;68.27
29215;BME280;16252;49.816;7.964;2022-11-20T09:56:20;99583.28;;;8.00;68.58
29215;BME280;16252;49.816;7.964;2022-11-20T09:58:51;99565.94;;;7.94;68.67
29215;BME280;16252;49.816;7.964;2022-11-20T10:01:19;99566.28;;;7.90;68.60
29215;BME280;16252;49.816;7.964;2022-11-20T10:06:52;99560.75;;;7.93;68.60
29215;BME280;16252;49.816;7.964;2022-11-20T10:09:25;99568.81;;;8.04;68.44
29215;BME280;16252;49.816;7.964;2022-11-20T10:12:27;99586.47;;;8.18;68.13
29215;BME280;16252;49.816;7.964;2022-11-20T10:15:05;99552.19;;;8.00;68.08
29215;BME280;16252;49.816;7.964;2022-11-20T10:26:22;99560.16;;;8.13;68.26
29215;BME280;16252;49.816;7.964;2022-11-20T10:29:15;99511.97;;;7.79;68.46
29215;BME280;16252;49.816;7.964;2022-11-20T10:31:52;99526.41;;;8.01;68.58
29215;BME280;16252;49.816;7.964;2022-11-20T10:34:35;99526.41;;;8.01;68.58
29215;BME280;16252;49.816;7.964;2022-11-20T10:37:20;99557.03;;;8.19;68.59
29215;BME280;16252;49.816;7.964;2022-11-20T10:39:50;99564.22;;;8.30;68.21
29215;BME280;16252;49.816;7.964;2022-11-20T10:45:09;99504.69;;;7.94;68.99
29215;BME280;16252;49.816;7.964;2022-11-20T10:47:35;99522.03;;;8.00;69.15
29215;BME280;16252;49.816;7.964;2022-11-20T10:50:08;99550.38;;;8.25;69.42
29215;BME280;16252;49.816;7.964;2022-11-20T10:53:37;99545.47;;;8.32;69.31
29215;BME280;16252;49.816;7.964;2022-11-20T10:55:57;99532.38;;;8.29;69.03
29215;BME280;16252;49.816;7.964;2022-11-20T10:58:38;99523.28;;;8.31;69.03
29215;BME280;16252;49.816;7.964;2022-11-20T11:01:16;99511.28;;;8.25;69.58
29215;BME280;16252;49.816;7.964;2022-11-20T11:03:43;99525.81;;;8.33;69.56
29215;BME280;16252;49.816;7.964;2022-11-20T11:08:50;99519.84;;;8.42;69.66
29215;BME280;16252;49.816;7.964;2022-11-20T11:11:25;99504.84;;;8.41;69.60
29215;BME280;16252;49.816;7.964;2022-11-20T11:13:51;99498.72;;;8.39;69.84
29215;BME280;16252;49.816;7.964;2022-11-20T11:16:23;99496.97;;;8.51;69.86
29215;BME280;16252;49.816;7.964;2022-11-20T11:18:49;99502.59;;;8.59;69.80
29215;BME280;16252;49.816;7.964;2022-11-20T11:21:21;99501.25;;;8.64;69.57
29215;BME280;16252;49.816;7.964;2022-11-20T11:23:58;99491.56;;;8.63;69.60
29215;BME280;16252;49.816;7.964;2022-11-20T11:26:24;99492.69;;;8.72;69.55
29215;BME280;16252;49.816;7.964;2022-11-20T11:28:59;99493.91;;;8.79;69.29
29215;BME280;16252;49.816;7.964;2022-11-20T11:31:29;99481.66;;;8.77;69.58
29215;BME280;16252;49.816;7.964;2022-11-20T11:36:32;99447.44;;;8.59;70.06
29215;BME280;16252;49.816;7.964;2022-11-20T11:38:58;99480.56;;;8.79;70.25
29215;BME280;16252;49.816;7.964;2022-11-20T11:41:26;99477.91;;;8.90;70.28
29215;BME280;16252;49.816;7.964;2022-11-20T11:43:58;99482.41;;;9.01;70.34
29215;BME280;16252;49.816;7.964;2022-11-20T11:46:51;99456.94;;;8.97;70.12
29215;BME280;16252;49.816;7.964;2022-11-20T11:49:19;99444.94;;;8.92;70.40
29215;BME280;16252;49.816;7.964;2022-11-20T11:52:02;99470.66;;;9.26;70.50
29215;BME280;16252;49.816;7.964;2022-11-20T11:54:35;99470.66;;;9.26;70.39
29215;BME280;16252;49.816;7.964;2022-11-20T11:57:07;99457.66;;;9.33;70.03
29215;BME280;16252;49.816;7.964;2022-11-20T11:59:47;99448.34;;;9.27;70.04
29215;BME280;16252;49.816;7.964;2022-11-20T12:02:38;99439.50;;;9.27;69.77
29215;BME280;16252;49.816;7.964;2022-11-20T12:07:57;99460.31;;;9.44;69.73
29215;BME280;16252;49.816;7.964;2022-11-20T12:13:21;99422.25;;;9.31;70.06
29215;BME280;16252;49.816;7.964;2022-11-20T12:15:50;99407.81;;;9.22;70.28
29215;BME280;16252;49.816;7.964;2022-11-20T12:18:18;99437.88;;;9.47;70.45
29215;BME280;16252;49.816;7.964;2022-11-20T12:20:53;99431.44;;;9.49;70.48
29215;BME280;16252;49.816;7.964;2022-11-20T12:23:35;99424.91;;;9.42;70.61
29215;BME280;16252;49.816;7.964;2022-11-20T12:26:39;99440.63;;;9.68;70.32
29215;BME280;16252;49.816;7.964;2022-11-20T12:34:47;99449.81;;;9.86;70.41
29215;BME280;16252;49.816;7.964;2022-11-20T12:40:41;99428.53;;;9.96;70.23
29215;BME280;16252;49.816;7.964;2022-11-20T12:43:19;99442.25;;;10.03;70.39
29215;BME280;16252;49.816;7.964;2022-11-20T12:49:02;99433.81;;;10.07;70.38
29215;BME280;16252;49.816;7.964;2022-11-20T12:51:39;99425.56;;;10.10;70.34
29215;BME280;16252;49.816;7.964;2022-11-20T12:57:18;99389.84;;;10.00;70.33
29215;BME280;16252;49.816;7.964;2022-11-20T13:00:07;99422.25;;;10.18;70.50
29215;BME280;16252;49.816;7.964;2022-11-20T13:05:21;99407.78;;;10.20;70.72
29215;BME280;16252;49.816;7.964;2022-11-20T13:07:52;99386.69;;;10.06;70.80
29215;BME280;16252;49.816;7.964;2022-11-20T13:10:34;99348.34;;;9.96;70.78
29215;BME280;16252;49.816;7.964;2022-11-20T13:13:12;99379.84;;;10.13;70.83
29215;BME280;16252;49.816;7.964;2022-11-20T13:15:50;99380.91;;;10.22;70.88
29215;BME280;16252;49.816;7.964;2022-11-20T13:18:19;99393.63;;;10.30;70.89
29215;BME280;16252;49.816;7.964;2022-11-20T13:20:45;99403.13;;;10.34;71.07
29215;BME280;16252;49.816;7.964;2022-11-20T13:23:23;99388.03;;;10.33;70.92
29215;BME280;16252;49.816;7.964;2022-11-20T13:25:49;99352.03;;;10.16;70.87
29215;BME280;16252;49.816;7.964;2022-11-20T13:30:51;99384.91;;;10.49;71.21
29215;BME280;16252;49.816;7.964;2022-11-20T13:33:41;99383.53;;;10.54;71.32
29215;BME280;16252;49.816;7.964;2022-11-20T13:36:25;99375.38;;;10.56;71.50
29215;BME280;16252;49.816;7.964;2022-11-20T13:38:53;99370.16;;;10.54;71.51
29215;BME280;16252;49.816;7.964;2022-11-20T13:41:36;99356.13;;;10.62;71.28
29215;BME280;16252;49.816;7.964;2022-11-20T13:46:42;99324.50;;;10.46;70.80
29215;BME280;16252;49.816;7.964;2022-11-20T13:49:16;99340.19;;;10.60;70.36
29215;BME280;16252;49.816;7.964;2022-11-20T13:51:46;99318.63;;;10.52;70.27
29215;BME280;16252;49.816;7.964;2022-11-20T13:57:31;99342.91;;;10.70;69.61
29215;BME280;16252;49.816;7.964;2022-11-20T14:00:22;99190.00;;;9.73;69.60
29215;BME280;16252;49.816;7.964;2022-11-20T14:03:17;99177.88;;;9.69;69.59
29215;BME280;16252;49.816;7.964;2022-11-20T14:05:59;99192.41;;;9.76;69.26
29215;BME280;16252;49.816;7.964;2022-11-20T14:08:35;99313.16;;;10.54;69.23
29215;BME280;16252;49.816;7.964;2022-11-20T14:11:14;99320.34;;;10.53;69.37
29215;BME280;16252;49.816;7.964;2022-11-20T14:16:21;99266.09;;;10.20;69.02
29215;BME280;16252;49.816;7.964;2022-11-20T14:18:47;99335.72;;;10.61;68.95
29215;BME280;16252;49.816;7.964;2022-11-20T14:21:21;99305.50;;;10.49;68.73
29215;BME280;16252;49.816;7.964;2022-11-20T14:23:47;99333.28;;;10.58;68.86
29215;BME280;16252;49.816;7.964;2022-11-20T14:26:14;99305.25;;;10.52;68.52
29215;BME280;16252;49.816;7.964;2022-11-20T14:28:48;99323.75;;;10.65;68.72